createdAt,value
2017-05-07T00:00:19.650Z,9.30
2017-05-07T00:02:48.010Z,9.30
2017-05-07T00:05:16.326Z,9.30
2017-05-07T00:07:45.385Z,9.30
2017-05-07T00:10:13.730Z,9.30
2017-05-07T00:12:42.028Z,9.30
2017-05-07T00:15:10.323Z,9.30
2017-05-07T00:17:38.677Z,9.30
2017-05-07T00:20:06.979Z,9.30
2017-05-07T00:22:35.298Z,9.10
2017-05-07T00:25:04.392Z,8.90
2017-05-07T00:27:33.447Z,8.80
2017-05-07T00:30:01.762Z,8.90
2017-05-07T00:32:30.876Z,8.80
2017-05-07T00:34:59.196Z,8.70
2017-05-07T00:37:27.506Z,8.50
2017-05-07T00:39:55.857Z,8.50
2017-05-07T00:42:24.160Z,8.50
2017-05-07T00:44:52.481Z,8.60
2017-05-07T00:47:20.840Z,8.70
2017-05-07T00:49:49.143Z,8.70
2017-05-07T00:52:17.439Z,8.70
2017-05-07T00:54:45.763Z,8.80
2017-05-07T00:57:14.819Z,8.90
2017-05-07T00:59:43.135Z,8.90
2017-05-07T01:02:12.227Z,8.90
2017-05-07T01:04:41.283Z,8.90
2017-05-07T01:07:09.603Z,9.00
2017-05-07T01:09:38.700Z,9.00
2017-05-07T01:12:07.759Z,9.00
2017-05-07T01:14:36.074Z,8.80
2017-05-07T01:17:05.159Z,8.70
2017-05-07T01:19:33.482Z,8.70
2017-05-07T01:22:01.783Z,8.60
2017-05-07T01:24:30.139Z,8.50
2017-05-07T01:26:58.449Z,8.40
2017-05-07T01:29:26.776Z,8.30
2017-05-07T01:31:55.108Z,8.30
2017-05-07T01:34:23.428Z,8.30
2017-05-07T01:36:51.750Z,8.30
2017-05-07T01:39:20.106Z,8.30
2017-05-07T01:41:48.422Z,8.30
2017-05-07T01:44:16.739Z,8.30
2017-05-07T01:46:45.089Z,8.30
2017-05-07T01:49:13.402Z,8.30
2017-05-07T01:51:41.717Z,8.30
2017-05-07T01:54:10.067Z,8.30
2017-05-07T01:56:39.127Z,8.30
2017-05-07T01:59:07.451Z,8.30
2017-05-07T02:01:36.546Z,8.30
2017-05-07T02:04:05.607Z,8.30
2017-05-07T02:06:33.931Z,8.30
2017-05-07T02:09:02.279Z,8.40
2017-05-07T02:11:30.598Z,8.30
2017-05-07T02:13:58.901Z,8.20
2017-05-07T02:16:27.247Z,8.20
2017-05-07T02:18:55.558Z,8.20
2017-05-07T02:21:23.878Z,8.30
2017-05-07T02:23:52.958Z,8.30
2017-05-07T02:26:21.270Z,8.20
2017-05-07T02:28:49.581Z,8.10
2017-05-07T02:31:17.912Z,8.00
2017-05-07T02:33:46.978Z,7.90
2017-05-07T02:36:15.290Z,7.80
2017-05-07T02:38:44.386Z,7.80
2017-05-07T02:41:13.418Z,7.80
2017-05-07T02:43:41.735Z,7.80
2017-05-07T02:46:10.089Z,7.80
2017-05-07T02:48:38.407Z,7.80
2017-05-07T02:51:07.467Z,7.80
2017-05-07T02:53:35.803Z,7.70
2017-05-07T02:56:04.095Z,7.60
2017-05-07T02:58:32.406Z,7.60
2017-05-07T03:01:00.754Z,7.60
2017-05-07T03:03:29.071Z,7.60
2017-05-07T03:05:57.387Z,7.60
2017-05-07T03:08:25.709Z,7.60
2017-05-07T03:10:54.018Z,7.40
2017-05-07T03:13:22.334Z,7.50
2017-05-07T03:15:50.686Z,7.40
2017-05-07T03:18:19.743Z,7.30
2017-05-07T03:20:48.041Z,7.20
2017-05-07T03:23:16.359Z,7.30
2017-05-07T03:25:44.666Z,7.30
2017-05-07T03:28:12.978Z,7.40
2017-05-07T03:30:41.331Z,7.30
2017-05-07T03:33:09.640Z,7.20
2017-05-07T03:35:38.677Z,7.20
2017-05-07T03:38:07.022Z,7.20
2017-05-07T03:40:36.059Z,7.10
2017-05-07T03:43:04.351Z,7.10
2017-05-07T03:45:32.678Z,7.10
2017-05-07T03:48:01.715Z,7.10
2017-05-07T03:50:30.008Z,7.10
2017-05-07T03:52:58.343Z,7.20
2017-05-07T03:55:26.639Z,7.30
2017-05-07T03:57:54.930Z,7.30
2017-05-07T04:00:23.251Z,7.40
2017-05-07T04:02:52.284Z,7.40
2017-05-07T04:05:20.576Z,7.60
2017-05-07T04:07:48.896Z,7.80
2017-05-07T04:10:17.186Z,7.90
2017-05-07T04:12:46.223Z,8.10
2017-05-07T04:15:14.551Z,8.30
2017-05-07T04:17:43.584Z,8.40
2017-05-07T04:20:11.883Z,8.60
2017-05-07T04:22:40.211Z,8.80
2017-05-07T04:25:09.247Z,8.90
2017-05-07T04:27:37.548Z,9.00
2017-05-07T04:30:05.872Z,9.10
2017-05-07T04:32:34.158Z,9.40
2017-05-07T04:35:02.451Z,9.80
2017-05-07T04:37:30.787Z,10.20
2017-05-07T04:39:59.829Z,10.70
2017-05-07T04:42:28.123Z,10.90
2017-05-07T04:44:56.456Z,10.90
2017-05-07T04:47:24.761Z,11.10
2017-05-07T04:49:53.064Z,11.70
2017-05-07T04:52:21.391Z,11.90
2017-05-07T04:54:49.691Z,11.90
2017-05-07T04:57:17.991Z,11.80
2017-05-07T04:59:46.320Z,11.60
2017-05-07T05:02:14.628Z,11.70
2017-05-07T05:04:42.927Z,11.70
2017-05-07T05:07:11.263Z,11.80
2017-05-07T05:09:39.556Z,12.00
2017-05-07T05:12:07.848Z,12.30
2017-05-07T05:14:36.187Z,12.90
2017-05-07T05:17:04.493Z,13.20
2017-05-07T05:19:47.704Z,13.30
2017-05-07T05:22:33.688Z,13.30
2017-05-07T05:25:19.667Z,13.10
2017-05-07T05:27:48.702Z,13.00
2017-05-07T05:30:23.949Z,13.00
2017-05-07T05:32:52.243Z,12.90
2017-05-07T05:35:20.536Z,13.00
2017-05-07T05:37:48.864Z,13.00
2017-05-07T05:40:17.164Z,13.20
2017-05-07T05:42:45.457Z,13.30
2017-05-07T05:45:13.793Z,13.30
2017-05-07T05:47:42.091Z,13.40
2017-05-07T05:50:10.385Z,13.50
2017-05-07T05:52:38.719Z,13.50
2017-05-07T05:55:07.015Z,13.50
2017-05-07T05:57:35.311Z,13.50
2017-05-07T06:00:03.631Z,13.50
2017-05-07T06:02:31.927Z,13.50
2017-05-07T06:05:00.220Z,13.50
2017-05-07T06:07:28.559Z,13.50
2017-05-07T06:09:56.855Z,13.50
2017-05-07T06:12:25.147Z,13.50
2017-05-07T06:14:53.747Z,13.50
2017-05-07T06:17:22.046Z,13.50
2017-05-07T06:19:51.087Z,13.60
2017-05-07T06:22:19.419Z,13.60
2017-05-07T06:24:47.722Z,13.60
2017-05-07T06:27:16.056Z,13.70
2017-05-07T06:29:44.387Z,13.70
2017-05-07T06:32:12.684Z,13.70
2017-05-07T06:34:40.983Z,13.80
2017-05-07T06:37:10.059Z,13.90
2017-05-07T06:39:38.358Z,13.90
2017-05-07T06:42:07.392Z,13.90
2017-05-07T06:44:35.720Z,14.00
2017-05-07T06:47:04.759Z,14.20
2017-05-07T06:49:33.059Z,14.30
2017-05-07T06:52:01.393Z,14.50
2017-05-07T06:54:29.695Z,14.50
2017-05-07T06:56:57.990Z,14.70
2017-05-07T06:59:26.315Z,14.80
2017-05-07T07:01:55.351Z,14.90
2017-05-07T07:04:24.384Z,15.00
2017-05-07T07:06:52.727Z,15.10
2017-05-07T07:09:21.759Z,15.20
2017-05-07T07:11:50.055Z,15.40
2017-05-07T07:14:18.388Z,15.60
2017-05-07T07:16:46.684Z,15.80
2017-05-07T07:19:14.979Z,15.80
2017-05-07T07:21:43.315Z,15.70
2017-05-07T07:24:12.359Z,15.60
2017-05-07T07:26:40.655Z,15.80
2017-05-07T07:29:09.013Z,15.90
2017-05-07T07:31:37.310Z,16.00
2017-05-07T07:34:05.623Z,16.20
2017-05-07T07:36:34.691Z,16.10
2017-05-07T07:39:03.761Z,16.00
2017-05-07T07:41:32.048Z,16.00
2017-05-07T07:44:01.117Z,16.00
2017-05-07T07:46:29.416Z,16.00
2017-05-07T07:48:57.715Z,16.10
2017-05-07T07:51:26.816Z,16.10
2017-05-07T07:53:55.839Z,16.10
2017-05-07T07:56:24.137Z,16.10
2017-05-07T07:58:52.467Z,16.00
2017-05-07T08:01:20.759Z,16.00
2017-05-07T08:03:49.054Z,15.90
2017-05-07T08:06:17.373Z,15.90
2017-05-07T08:08:45.675Z,15.90
2017-05-07T08:11:14.713Z,16.00
2017-05-07T08:13:43.052Z,16.40
2017-05-07T08:16:11.347Z,16.90
2017-05-07T08:18:39.638Z,17.60
2017-05-07T08:21:07.972Z,18.30
2017-05-07T08:23:37.008Z,18.80
2017-05-07T08:26:05.300Z,19.30
2017-05-07T08:28:33.634Z,19.00
2017-05-07T08:31:01.931Z,18.90
2017-05-07T08:33:30.219Z,18.60
2017-05-07T08:35:58.543Z,18.70
2017-05-07T08:38:27.571Z,18.60
2017-05-07T08:40:55.863Z,18.80
2017-05-07T08:43:24.200Z,18.80
2017-05-07T08:45:52.501Z,18.80
2017-05-07T08:48:20.795Z,18.80
2017-05-07T08:50:49.127Z,18.80
2017-05-07T08:53:18.160Z,19.10
2017-05-07T08:55:46.455Z,19.80
2017-05-07T08:58:14.791Z,20.00
2017-05-07T09:00:43.085Z,20.20
2017-05-07T09:03:12.819Z,19.60
2017-05-07T09:05:41.147Z,19.80
2017-05-07T09:08:09.444Z,20.20
2017-05-07T09:10:37.744Z,20.40
2017-05-07T09:13:20.943Z,20.70
2017-05-07T09:16:04.919Z,21.00
2017-05-07T09:18:50.891Z,20.90
2017-05-07T09:21:19.928Z,21.10
2017-05-07T09:23:48.248Z,21.60
2017-05-07T09:26:16.572Z,21.90
2017-05-07T09:28:44.867Z,21.80
2017-05-07T09:31:13.161Z,22.20
2017-05-07T09:33:41.492Z,22.60
2017-05-07T09:36:09.787Z,22.70
2017-05-07T09:38:38.076Z,23.10
2017-05-07T09:41:06.406Z,22.80
2017-05-07T09:43:35.439Z,22.80
2017-05-07T09:46:03.732Z,23.40
2017-05-07T09:48:32.056Z,23.20
2017-05-07T09:51:01.091Z,22.90
2017-05-07T09:53:29.383Z,22.20
2017-05-07T09:55:57.705Z,21.30
2017-05-07T09:58:26.735Z,20.90
2017-05-07T10:00:55.031Z,21.00
2017-05-07T10:03:23.350Z,21.10
2017-05-07T10:05:51.649Z,21.10
2017-05-07T10:08:20.687Z,21.00
2017-05-07T10:10:49.024Z,20.80
2017-05-07T10:13:18.064Z,20.60
2017-05-07T10:15:46.360Z,20.70
2017-05-07T10:18:14.691Z,21.30
2017-05-07T10:20:42.991Z,21.70
2017-05-07T10:23:11.288Z,22.30
2017-05-07T10:25:39.619Z,22.40
2017-05-07T10:28:07.910Z,22.30
2017-05-07T10:30:36.203Z,22.40
2017-05-07T10:33:04.533Z,22.30
2017-05-07T10:35:32.828Z,22.20
2017-05-07T10:38:01.121Z,22.20
2017-05-07T10:40:29.448Z,22.30
2017-05-07T10:42:57.750Z,22.20
2017-05-07T10:45:26.047Z,22.10
2017-05-07T10:47:54.387Z,22.60
2017-05-07T10:50:22.685Z,22.40
2017-05-07T10:52:50.982Z,22.30
2017-05-07T10:55:19.299Z,22.30
2017-05-07T10:57:47.593Z,21.90
2017-05-07T11:00:16.637Z,21.60
2017-05-07T11:02:44.960Z,21.50
2017-05-07T11:05:14.008Z,21.60
2017-05-07T11:07:42.304Z,21.70
2017-05-07T11:10:10.622Z,21.70
2017-05-07T11:12:39.660Z,21.50
2017-05-07T11:15:07.952Z,21.50
2017-05-07T11:17:36.277Z,21.20
2017-05-07T11:20:05.315Z,21.10
2017-05-07T11:22:33.607Z,20.80
2017-05-07T11:25:01.933Z,20.80
2017-05-07T11:27:30.231Z,20.70
2017-05-07T11:29:58.564Z,20.60
2017-05-07T11:32:26.862Z,20.30
2017-05-07T11:34:55.903Z,20.10
2017-05-07T11:37:24.240Z,20.00
2017-05-07T11:39:52.539Z,20.00
2017-05-07T11:42:20.840Z,20.20
2017-05-07T11:44:49.180Z,20.10
2017-05-07T11:47:17.476Z,20.10
2017-05-07T11:49:45.772Z,20.10
2017-05-07T11:52:14.100Z,20.00
2017-05-07T11:54:43.136Z,19.60
2017-05-07T11:57:11.434Z,19.50
2017-05-07T11:59:39.751Z,19.30
2017-05-07T12:02:08.790Z,19.20
2017-05-07T12:04:37.083Z,19.60
2017-05-07T12:07:05.415Z,20.20
2017-05-07T12:09:33.707Z,20.40
2017-05-07T12:12:02.000Z,20.90
2017-05-07T12:14:30.328Z,21.00
2017-05-07T12:16:59.359Z,21.30
2017-05-07T12:19:27.652Z,22.10
2017-05-07T12:21:55.982Z,22.50
2017-05-07T12:24:25.015Z,22.90
2017-05-07T12:26:53.309Z,23.40
2017-05-07T12:29:21.640Z,23.50
2017-05-07T12:31:49.940Z,23.60
2017-05-07T12:34:18.236Z,23.90
2017-05-07T12:36:46.556Z,23.60
2017-05-07T12:39:15.591Z,23.70
2017-05-07T12:41:43.883Z,23.70
2017-05-07T12:44:12.212Z,23.80
2017-05-07T12:46:41.261Z,23.80
2017-05-07T12:49:09.555Z,23.80
2017-05-07T12:51:37.887Z,24.00
2017-05-07T12:54:06.184Z,24.10
2017-05-07T12:56:34.481Z,24.10
2017-05-07T12:59:02.812Z,22.90
2017-05-07T13:01:31.107Z,22.70
2017-05-07T13:03:59.405Z,23.00
2017-05-07T13:06:27.728Z,23.20
2017-05-07T13:08:56.768Z,22.90
2017-05-07T13:11:25.069Z,22.50
2017-05-07T13:13:53.400Z,22.40
2017-05-07T13:16:21.691Z,22.20
2017-05-07T13:18:49.983Z,22.10
2017-05-07T13:21:19.016Z,21.90
2017-05-07T13:23:47.319Z,21.90
2017-05-07T13:26:15.624Z,22.10
2017-05-07T13:28:43.984Z,22.40
2017-05-07T13:31:12.697Z,23.00
2017-05-07T13:33:41.000Z,23.00
2017-05-07T13:36:09.326Z,22.80
2017-05-07T13:38:37.631Z,22.70
2017-05-07T13:41:05.923Z,22.80
2017-05-07T13:43:34.263Z,22.90
2017-05-07T13:46:02.559Z,23.20
2017-05-07T13:48:30.863Z,23.50
2017-05-07T13:50:59.256Z,23.50
2017-05-07T13:53:27.554Z,23.80
2017-05-07T13:55:56.592Z,23.50
2017-05-07T13:58:24.920Z,23.20
2017-05-07T14:00:53.952Z,22.70
2017-05-07T14:03:22.248Z,22.60
2017-05-07T14:05:50.605Z,22.90
2017-05-07T14:08:18.907Z,22.90
2017-05-07T14:10:47.202Z,23.20
2017-05-07T14:13:15.532Z,22.60
2017-05-07T14:15:43.827Z,22.50
2017-05-07T14:18:12.121Z,22.20
2017-05-07T14:20:40.454Z,22.10
2017-05-07T14:23:08.748Z,21.80
2017-05-07T14:25:37.043Z,21.90
2017-05-07T14:28:05.372Z,21.90
2017-05-07T14:30:34.416Z,21.70
2017-05-07T14:33:02.715Z,21.50
2017-05-07T14:35:31.036Z,21.50
2017-05-07T14:37:59.328Z,21.50
2017-05-07T14:40:27.623Z,21.30
2017-05-07T14:42:55.956Z,21.40
2017-05-07T14:45:25.045Z,21.10
2017-05-07T14:47:53.346Z,21.00
2017-05-07T14:50:21.668Z,21.10
2017-05-07T14:52:49.981Z,21.20
2017-05-07T14:55:18.281Z,21.40
2017-05-07T14:57:46.616Z,21.70
2017-05-07T15:00:15.651Z,22.20
2017-05-07T15:02:43.946Z,22.70
2017-05-07T15:05:12.279Z,22.70
2017-05-07T15:07:40.571Z,22.50
2017-05-07T15:10:08.868Z,22.30
2017-05-07T15:12:37.203Z,22.20
2017-05-07T15:15:06.246Z,21.90
2017-05-07T15:17:34.547Z,21.70
2017-05-07T15:20:02.883Z,21.60
2017-05-07T15:22:31.184Z,21.40
2017-05-07T15:24:59.480Z,21.30
2017-05-07T15:27:27.823Z,21.00
2017-05-07T15:29:56.123Z,20.80
2017-05-07T15:32:24.422Z,20.70
2017-05-07T15:34:52.755Z,20.70
2017-05-07T15:37:21.061Z,20.70
2017-05-07T15:39:49.368Z,20.60
2017-05-07T15:42:18.443Z,20.70
2017-05-07T15:44:46.743Z,20.60
2017-05-07T15:47:15.779Z,20.50
2017-05-07T15:49:44.116Z,20.30
2017-05-07T15:52:13.163Z,20.20
2017-05-07T15:54:41.463Z,20.10
2017-05-07T15:57:09.787Z,20.00
2017-05-07T15:59:38.088Z,19.90
2017-05-07T16:02:06.388Z,19.90
2017-05-07T16:04:34.724Z,20.00
2017-05-07T16:07:03.021Z,19.90
2017-05-07T16:09:31.320Z,19.70
2017-05-07T16:11:59.649Z,19.90
2017-05-07T16:14:27.952Z,20.00
2017-05-07T16:26:28.579Z,19.60
2017-05-07T16:29:11.783Z,19.40
2017-05-07T16:31:40.078Z,19.20
2017-05-07T16:34:08.376Z,19.00
2017-05-07T16:36:36.711Z,18.90
2017-05-07T16:39:05.011Z,18.70
2017-05-07T16:41:33.313Z,18.60
2017-05-07T16:44:01.641Z,18.70
2017-05-07T16:46:29.940Z,18.70
2017-05-07T16:48:58.240Z,18.70
2017-05-07T16:51:26.578Z,18.70
2017-05-07T16:53:54.111Z,18.70
2017-05-07T16:56:22.413Z,18.80
2017-05-07T16:58:51.489Z,18.70
2017-05-07T17:01:19.787Z,18.50
2017-05-07T17:03:48.831Z,18.20
2017-05-07T17:06:22.843Z,18.20
2017-05-07T17:08:51.139Z,18.00
2017-05-07T17:11:19.443Z,18.00
2017-05-07T17:13:47.776Z,17.90
2017-05-07T17:16:16.076Z,17.80
2017-05-07T17:18:45.114Z,17.80
2017-05-07T17:21:13.449Z,17.80
2017-05-07T17:23:42.491Z,17.70
2017-05-07T17:26:10.798Z,17.60
2017-05-07T17:28:39.132Z,17.50
2017-05-07T17:31:07.452Z,17.40
2017-05-07T17:33:35.750Z,17.30
2017-05-07T17:36:04.083Z,17.20
2017-05-07T17:38:32.383Z,17.10
2017-05-07T17:41:00.683Z,17.10
2017-05-07T17:43:29.011Z,17.00
2017-05-07T17:45:57.307Z,16.90
2017-05-07T17:48:25.609Z,16.80
2017-05-07T17:50:53.949Z,16.80
2017-05-07T17:53:22.248Z,16.70
2017-05-07T17:55:50.554Z,16.60
2017-05-07T17:58:19.632Z,16.50
2017-05-07T18:00:47.931Z,16.40
2017-05-07T18:03:16.980Z,16.30
2017-05-07T18:05:45.308Z,16.30
2017-05-07T18:08:14.347Z,16.20
2017-05-07T18:10:42.642Z,16.20
2017-05-07T18:13:10.974Z,16.20
2017-05-07T18:15:39.266Z,16.20
2017-05-07T18:18:07.558Z,16.20
2017-05-07T18:20:35.887Z,16.20
2017-05-07T18:23:04.928Z,16.10
2017-05-07T18:25:33.226Z,16.00
2017-05-07T18:28:01.559Z,16.10
2017-05-07T18:30:29.858Z,16.10
2017-05-07T18:32:58.154Z,16.00
2017-05-07T18:35:26.499Z,16.00
2017-05-07T18:37:54.799Z,16.00
2017-05-07T18:40:23.096Z,15.90
2017-05-07T18:42:51.436Z,15.90
2017-05-07T18:45:19.739Z,15.90
2017-05-07T18:47:48.047Z,15.80
2017-05-07T18:50:16.384Z,15.70
2017-05-07T18:52:44.676Z,15.60
2017-05-07T18:55:12.971Z,15.50
2017-05-07T18:57:41.291Z,15.50
2017-05-07T19:00:10.331Z,15.40
2017-05-07T19:02:38.664Z,15.40
2017-05-07T19:05:07.712Z,15.40
2017-05-07T19:07:36.012Z,15.30
2017-05-07T19:10:04.340Z,15.30
2017-05-07T19:12:32.640Z,15.20
2017-05-07T19:15:00.943Z,15.20
2017-05-07T19:17:29.279Z,15.20
2017-05-07T19:19:57.580Z,15.20
2017-05-07T19:22:25.881Z,15.20
2017-05-07T19:24:54.210Z,15.20
2017-05-07T19:27:22.511Z,15.20
2017-05-07T19:29:50.811Z,15.10
2017-05-07T19:32:19.152Z,15.10
2017-05-07T19:34:47.451Z,15.10
2017-05-07T19:37:15.749Z,15.10
2017-05-07T19:39:44.076Z,15.10
2017-05-07T19:42:12.375Z,15.10
2017-05-07T19:44:40.672Z,15.10
2017-05-07T19:47:09.014Z,15.10
2017-05-07T19:49:37.308Z,15.10
2017-05-07T19:52:05.608Z,15.10
2017-05-07T19:54:33.944Z,15.00
2017-05-07T19:57:02.240Z,14.90
2017-05-07T19:59:30.539Z,14.80
2017-05-07T20:01:58.858Z,14.70
2017-05-07T20:04:27.158Z,14.60
2017-05-07T20:06:55.461Z,14.50
2017-05-07T20:09:23.799Z,14.50
2017-05-07T20:11:53.570Z,14.40
2017-05-07T20:14:22.733Z,14.30
2017-05-07T20:16:51.249Z,14.30
2017-05-07T20:19:19.555Z,14.30
2017-05-07T20:21:48.623Z,14.30
2017-05-07T20:24:16.924Z,14.20
2017-05-07T20:26:45.960Z,14.20
2017-05-07T20:29:14.291Z,14.20
2017-05-07T20:31:43.335Z,14.10
2017-05-07T20:34:11.642Z,14.00
2017-05-07T20:36:39.985Z,14.00
2017-05-07T20:39:08.291Z,13.90
2017-05-07T20:41:36.595Z,13.90
2017-05-07T20:44:04.928Z,13.80
2017-05-07T20:46:33.231Z,13.80
2017-05-07T20:49:01.538Z,13.70
2017-05-07T20:51:30.599Z,13.60
2017-05-07T20:53:58.894Z,13.60
2017-05-07T20:56:27.187Z,13.60
2017-05-07T20:58:56.258Z,13.50
2017-05-07T21:01:24.556Z,13.50
2017-05-07T21:03:53.746Z,13.40
2017-05-07T21:06:22.079Z,13.40
2017-05-07T21:08:50.375Z,13.40
2017-05-07T21:11:18.672Z,13.40
2017-05-07T21:13:46.996Z,13.40
2017-05-07T21:16:15.294Z,13.50
2017-05-07T21:18:43.592Z,13.50
2017-05-07T21:21:11.926Z,13.50
2017-05-07T21:23:40.221Z,13.50
2017-05-07T21:26:08.519Z,13.50
2017-05-07T21:28:36.848Z,13.50
2017-05-07T21:31:05.139Z,13.40
2017-05-07T21:33:33.432Z,13.30
2017-05-07T21:36:01.767Z,13.30
2017-05-07T21:38:30.825Z,13.20
2017-05-07T21:40:59.119Z,13.30
2017-05-07T21:43:27.447Z,13.20
2017-05-07T21:45:55.741Z,13.30
2017-05-07T21:48:24.028Z,13.30
2017-05-07T21:50:52.346Z,13.30
2017-05-07T21:53:21.387Z,13.30
2017-05-07T21:55:49.680Z,13.30
2017-05-07T21:58:18.009Z,13.30
2017-05-07T22:00:47.044Z,13.30
2017-05-07T22:03:15.343Z,13.30
2017-05-07T22:05:43.668Z,13.20
2017-05-07T22:08:11.963Z,13.20
2017-05-07T22:10:40.255Z,13.10
2017-05-07T22:13:08.567Z,13.10
2017-05-07T22:15:36.858Z,13.00
2017-05-07T22:18:05.931Z,13.00
2017-05-07T22:20:34.228Z,13.00
2017-05-07T22:23:03.263Z,13.00
2017-05-07T22:25:31.578Z,13.00
2017-05-07T22:27:59.875Z,13.00
2017-05-07T22:30:28.915Z,12.90
2017-05-07T22:32:57.255Z,13.00
2017-05-07T22:35:26.295Z,12.90
2017-05-07T22:37:54.592Z,12.90
2017-05-07T22:40:22.934Z,12.90
2017-05-07T22:42:51.231Z,12.90
2017-05-07T22:45:19.523Z,12.90
2017-05-07T22:47:47.839Z,12.80
2017-05-07T22:50:16.879Z,12.80
2017-05-07T22:52:45.175Z,12.90
2017-05-07T22:55:13.511Z,12.90
2017-05-07T22:57:41.808Z,12.90
2017-05-07T23:00:10.105Z,12.90
2017-05-07T23:02:38.445Z,13.00
2017-05-07T23:05:06.743Z,13.00
2017-05-07T23:07:35.037Z,12.90
2017-05-07T23:10:03.360Z,12.90
2017-05-07T23:12:32.394Z,12.90
2017-05-07T23:15:00.690Z,12.90
2017-05-07T23:17:29.018Z,12.80
2017-05-07T23:19:57.321Z,12.80
2017-05-07T23:22:25.621Z,12.80
2017-05-07T23:24:53.956Z,12.80
2017-05-07T23:27:22.255Z,12.90
2017-05-07T23:29:50.547Z,12.90
2017-05-07T23:32:18.871Z,12.90
2017-05-07T23:34:47.903Z,12.80
2017-05-07T23:37:16.196Z,12.70
2017-05-07T23:39:44.536Z,12.70
2017-05-07T23:42:12.840Z,12.70
2017-05-07T23:44:41.136Z,12.70
2017-05-07T23:47:09.459Z,12.70
2017-05-07T23:49:38.495Z,12.70
2017-05-07T23:52:07.016Z,12.70
2017-05-07T23:54:35.364Z,12.70
2017-05-07T23:57:04.403Z,12.60
2017-05-07T23:59:32.704Z,12.60
